Time;durP1;ratioP1;P1;durP2;ratioP2;P2;SDS_P1;SDS_P2;PMS_P1;PMS_P2;Temp;Humidity;BMP_temperature;BMP_pressure;BME280_temperature;BME280_humidity;BME280_pressure;Samples;Min_cycle;Max_cycle;Signal;HPM_P1;HPM_P2
2024/01/11 00:01:05;;;;;;;42.90;17.97;;;-4.90;99.90;;;;;;5082989;28;20218;-59
2024/01/11 00:03:33;;;;;;;47.03;18.37;;;-4.90;99.90;;;;;;5081707;28;20310;-60
2024/01/11 00:06:04;;;;;;;37.80;17.37;;;-4.90;99.90;;;;;;5081889;28;20223;-60
2024/01/11 00:08:32;;;;;;;47.53;17.97;;;-5.00;99.90;;;;;;5081722;28;20250;-60
2024/01/11 00:11:00;;;;;;;38.57;16.80;;;-5.00;99.90;;;;;;5078796;28;20273;-60
2024/01/11 00:13:29;;;;;;;45.77;19.60;;;-5.00;99.90;;;;;;5080904;28;20199;-60
2024/01/11 00:15:57;;;;;;;46.37;18.73;;;-4.90;99.90;;;;;;5081244;28;20212;-59
2024/01/11 00:18:26;;;;;;;40.60;18.27;;;-4.90;99.90;;;;;;5085766;28;20230;-60
2024/01/11 00:20:55;;;;;;;38.87;17.60;;;-4.90;99.90;;;;;;5088796;28;20246;-60
2024/01/11 00:23:24;;;;;;;49.93;18.67;;;-4.90;99.90;;;;;;5082314;28;20235;-60
2024/01/11 00:25:53;;;;;;;42.77;18.43;;;-4.80;99.90;;;;;;5080129;28;20191;-60
2024/01/11 00:28:21;;;;;;;47.87;17.97;;;-4.80;99.90;;;;;;5086170;28;20221;-60
2024/01/11 00:30:49;;;;;;;38.53;17.30;;;-4.80;99.90;;;;;;5078362;28;20238;-60
2024/01/11 00:33:17;;;;;;;40.30;18.17;;;-4.70;99.90;;;;;;5079329;28;20212;-60
2024/01/11 00:35:47;;;;;;;43.63;17.33;;;-4.70;99.90;;;;;;5083522;28;20223;-60
2024/01/11 00:38:15;;;;;;;41.93;18.20;;;-4.80;99.90;;;;;;5082455;28;20779;-59
2024/01/11 00:40:44;;;;;;;39.93;17.30;;;-4.80;99.90;;;;;;5085754;28;20660;-60
2024/01/11 00:43:12;;;;;;;39.63;17.13;;;-4.80;99.90;;;;;;5081447;28;20242;-60
2024/01/11 00:45:40;;;;;;;36.47;16.60;;;-4.90;99.90;;;;;;5081642;28;20231;-60
2024/01/11 00:48:08;;;;;;;40.67;17.17;;;-4.90;99.90;;;;;;5077748;28;20605;-60
2024/01/11 00:50:36;;;;;;;41.00;18.03;;;-4.90;99.90;;;;;;5081735;28;20232;-60
2024/01/11 00:53:06;;;;;;;45.70;18.17;;;-5.00;99.90;;;;;;5081031;28;20204;-59
2024/01/11 00:55:34;;;;;;;41.43;18.23;;;-5.00;99.90;;;;;;5082993;28;20226;-60
2024/01/11 00:58:03;;;;;;;40.60;17.27;;;-5.00;99.90;;;;;;5082359;28;20226;-60
2024/01/11 01:00:31;;;;;;;42.57;18.67;;;-5.10;99.90;;;;;;5080411;28;20269;-60
2024/01/11 01:02:59;;;;;;;44.53;17.77;;;-5.10;99.90;;;;;;5079891;28;20296;-60
2024/01/11 01:05:27;;;;;;;48.70;18.60;;;-5.10;99.90;;;;;;5082607;28;20241;-60
2024/01/11 01:07:56;;;;;;;41.13;18.37;;;-5.00;99.90;;;;;;5086353;28;20189;-61
2024/01/11 01:10:25;;;;;;;45.47;18.30;;;-5.00;99.90;;;;;;5083276;28;20248;-59
2024/01/11 01:12:54;;;;;;;41.10;18.23;;;-5.00;99.90;;;;;;5081101;28;20223;-59
2024/01/11 01:15:22;;;;;;;62.63;21.27;;;-5.00;99.90;;;;;;5079477;28;20577;-60
2024/01/11 01:17:50;;;;;;;56.67;19.83;;;-5.00;99.90;;;;;;5082821;28;20230;-59
2024/01/11 01:20:18;;;;;;;49.70;19.10;;;-5.00;99.90;;;;;;5078231;28;20264;-59
2024/01/11 01:22:47;;;;;;;52.13;20.43;;;-5.00;99.90;;;;;;5085313;28;20195;-60
2024/01/11 01:25:15;;;;;;;46.43;19.80;;;-5.00;99.90;;;;;;5086383;28;20227;-60
2024/01/11 01:27:45;;;;;;;52.43;21.17;;;-5.00;99.90;;;;;;5081140;28;20216;-59
2024/01/11 01:30:13;;;;;;;48.33;20.40;;;-5.00;99.90;;;;;;5085939;27;20219;-60
2024/01/11 01:32:42;;;;;;;49.30;20.30;;;-5.00;99.90;;;;;;5084793;27;20312;-60
2024/01/11 01:35:10;;;;;;;46.07;19.53;;;-5.00;99.90;;;;;;5081023;28;20191;-59
2024/01/11 01:37:38;;;;;;;47.93;19.47;;;-4.90;99.90;;;;;;5086800;28;20203;-59
2024/01/11 01:40:09;;;;;;;41.93;18.57;;;-4.90;99.90;;;;;;5087520;28;20230;-60
2024/01/11 01:42:37;;;;;;;46.33;19.27;;;-4.90;99.90;;;;;;5089512;28;20222;-61
2024/01/11 01:45:08;;;;;;;49.37;19.40;;;-4.90;99.90;;;;;;5089637;28;20221;-60
2024/01/11 01:47:36;;;;;;;47.47;19.20;;;-4.80;99.90;;;;;;5089269;28;20214;-60
2024/01/11 01:50:06;;;;;;;46.60;19.00;;;-4.80;99.90;;;;;;5083285;28;20199;-59
2024/01/11 01:52:37;;;;;;;53.17;19.60;;;-4.80;99.90;;;;;;5085602;28;20565;-59
2024/01/11 01:55:07;;;;;;;46.10;19.10;;;-4.80;99.90;;;;;;5086707;28;20219;-60
2024/01/11 01:57:36;;;;;;;52.40;19.13;;;-4.90;99.90;;;;;;5082623;28;20219;-60
2024/01/11 02:00:09;;;;;;;40.83;17.97;;;-4.90;99.90;;;;;;5085919;28;20762;-60
2024/01/11 02:02:39;;;;;;;40.57;18.13;;;-4.90;99.90;;;;;;5085925;28;20219;-59
2024/01/11 02:05:08;;;;;;;45.57;19.17;;;-4.90;99.90;;;;;;5085854;28;20665;-60
2024/01/11 02:07:37;;;;;;;40.93;18.33;;;-4.90;99.90;;;;;;5086830;28;20490;-59
2024/01/11 02:10:06;;;;;;;43.83;19.30;;;-4.90;99.90;;;;;;5087208;28;20219;-60
2024/01/11 02:12:36;;;;;;;43.57;20.03;;;-4.90;99.90;;;;;;5086141;27;20858;-59
2024/01/11 02:15:06;;;;;;;41.83;18.57;;;-4.90;99.90;;;;;;5083892;28;21785;-60
2024/01/11 02:17:35;;;;;;;42.03;17.90;;;-4.90;99.90;;;;;;5085989;28;20223;-60
2024/01/11 02:20:04;;;;;;;39.57;17.73;;;-4.90;99.90;;;;;;5083977;28;20249;-60
2024/01/11 02:22:36;;;;;;;43.03;17.97;;;-4.90;99.90;;;;;;5084253;28;20257;-59
2024/01/11 02:25:06;;;;;;;38.93;17.87;;;-4.90;99.90;;;;;;5086742;28;20227;-60
2024/01/11 02:27:46;;;;;;;43.87;18.63;;;-4.90;99.90;;;;;;5082152;28;20700;-60
2024/01/11 02:30:18;;;;;;;39.00;17.53;;;-5.00;99.90;;;;;;5084133;28;20212;-60
2024/01/11 02:32:50;;;;;;;44.17;18.77;;;-5.00;99.90;;;;;;5085032;28;20227;-59
2024/01/11 02:35:19;;;;;;;40.60;17.93;;;-5.00;99.90;;;;;;5084854;28;20231;-60
2024/01/11 02:37:48;;;;;;;45.30;18.63;;;-5.10;99.90;;;;;;5083791;28;20242;-60
2024/01/11 02:40:19;;;;;;;42.77;18.77;;;-5.10;99.90;;;;;;5086177;28;20306;-60
2024/01/11 02:42:48;;;;;;;44.90;18.90;;;-5.00;99.90;;;;;;5082499;28;20223;-61
2024/01/11 02:45:16;;;;;;;45.93;18.17;;;-5.00;99.90;;;;;;5089112;28;20215;-60
2024/01/11 02:47:44;;;;;;;37.00;18.23;;;-5.10;99.90;;;;;;5083709;28;20600;-60
2024/01/11 02:50:13;;;;;;;38.33;17.17;;;-5.10;99.90;;;;;;5085093;28;20192;-61
2024/01/11 02:52:41;;;;;;;41.13;18.10;;;-5.10;99.90;;;;;;5079403;28;20303;-60
2024/01/11 02:55:09;;;;;;;38.67;17.77;;;-5.10;99.90;;;;;;5082676;28;20216;-60
2024/01/11 02:57:38;;;;;;;43.00;18.03;;;-5.10;99.90;;;;;;5080705;28;20222;-59
2024/01/11 03:00:08;;;;;;;50.47;18.53;;;-5.10;99.90;;;;;;5082486;28;20222;-59
2024/01/11 03:02:37;;;;;;;43.50;17.90;;;-5.20;99.90;;;;;;5082231;28;20216;-59
2024/01/11 03:05:07;;;;;;;47.17;17.57;;;-5.20;99.90;;;;;;5085477;28;20188;-60
2024/01/11 03:07:35;;;;;;;45.77;18.03;;;-5.20;99.90;;;;;;5084024;28;20223;-60
2024/01/11 03:10:04;;;;;;;41.87;18.47;;;-5.20;99.90;;;;;;5083072;28;20306;-59
2024/01/11 03:12:32;;;;;;;39.60;17.67;;;-5.20;99.90;;;;;;5079786;28;20220;-60
2024/01/11 03:15:02;;;;;;;42.43;18.50;;;-5.30;99.90;;;;;;5083105;28;20225;-60
2024/01/11 03:17:30;;;;;;;44.20;19.60;;;-5.30;99.90;;;;;;5084735;28;20227;-60
2024/01/11 03:19:59;;;;;;;38.90;17.50;;;-5.30;99.90;;;;;;5082136;28;20713;-59
2024/01/11 03:22:28;;;;;;;39.10;17.23;;;-5.30;99.90;;;;;;5085697;28;20198;-60
2024/01/11 03:24:56;;;;;;;39.10;19.33;;;-5.30;99.90;;;;;;5080144;28;20226;-60
2024/01/11 03:27:27;;;;;;;45.93;17.97;;;-5.40;99.90;;;;;;5083803;28;20231;-60
2024/01/11 03:29:55;;;;;;;42.97;18.73;;;-5.40;99.90;;;;;;5077372;28;20224;-59
2024/01/11 03:32:24;;;;;;;44.73;18.27;;;-5.40;99.90;;;;;;5087295;27;20242;-60
2024/01/11 03:34:53;;;;;;;42.83;18.07;;;-5.40;99.90;;;;;;5086623;28;20196;-60
2024/01/11 03:37:21;;;;;;;46.43;18.37;;;-5.50;99.90;;;;;;5082265;28;20217;-60
2024/01/11 03:39:49;;;;;;;42.57;18.73;;;-5.50;99.90;;;;;;5083932;28;20265;-59
2024/01/11 03:42:18;;;;;;;41.13;18.87;;;-5.50;99.90;;;;;;5081391;28;20216;-59
2024/01/11 03:44:46;;;;;;;44.83;19.60;;;-5.50;99.90;;;;;;5077409;28;20220;-60
2024/01/11 03:47:14;;;;;;;43.93;19.17;;;-5.50;99.90;;;;;;5079616;28;20589;-60
2024/01/11 03:49:44;;;;;;;43.07;18.93;;;-5.50;99.90;;;;;;5083148;28;20204;-60
2024/01/11 03:52:12;;;;;;;40.43;17.90;;;-5.50;99.90;;;;;;5079751;28;20224;-60
2024/01/11 03:54:40;;;;;;;42.10;18.13;;;-5.60;99.90;;;;;;5082578;28;20219;-60
2024/01/11 03:57:09;;;;;;;41.63;17.93;;;-5.60;99.90;;;;;;5081963;28;20229;-60
2024/01/11 03:59:37;;;;;;;43.63;17.77;;;-5.60;99.90;;;;;;5082074;28;20222;-59
2024/01/11 04:02:05;;;;;;;43.30;18.50;;;-5.60;99.90;;;;;;5080662;28;20274;-59
2024/01/11 04:04:34;;;;;;;42.50;18.00;;;-5.60;99.90;;;;;;5086382;28;20195;-60
2024/01/11 04:07:04;;;;;;;43.93;17.97;;;-5.60;99.90;;;;;;5082067;28;20314;-60
2024/01/11 04:09:32;;;;;;;47.97;18.07;;;-5.60;99.90;;;;;;5083468;27;20219;-60
2024/01/11 04:12:00;;;;;;;40.97;18.03;;;-5.70;99.90;;;;;;5083686;28;20233;-59
2024/01/11 04:14:28;;;;;;;38.37;17.43;;;-5.70;99.90;;;;;;5081111;28;20246;-59
2024/01/11 04:16:57;;;;;;;41.20;17.63;;;-5.70;99.90;;;;;;5080977;28;20212;-59
2024/01/11 04:19:25;;;;;;;40.00;17.80;;;-5.70;99.90;;;;;;5078430;28;20222;-60
2024/01/11 04:21:53;;;;;;;49.17;18.93;;;-5.70;99.90;;;;;;5081397;28;20223;-60
2024/01/11 04:24:23;;;;;;;47.53;18.43;;;-5.70;99.90;;;;;;5078547;28;20310;-59
2024/01/11 04:26:51;;;;;;;41.97;18.47;;;-5.70;99.90;;;;;;5083626;28;20215;-60
2024/01/11 04:29:19;;;;;;;39.57;17.97;;;-5.70;99.90;;;;;;5079833;28;20220;-60
2024/01/11 04:31:48;;;;;;;39.07;18.30;;;-5.70;99.90;;;;;;5082216;28;20223;-60
2024/01/11 04:34:16;;;;;;;43.53;18.50;;;-5.80;99.90;;;;;;5082321;28;20230;-59
2024/01/11 04:36:44;;;;;;;42.27;18.20;;;-5.80;99.90;;;;;;5082612;28;20323;-60
2024/01/11 04:39:13;;;;;;;39.53;17.93;;;-5.80;99.90;;;;;;5081592;28;20645;-60
2024/01/11 04:41:42;;;;;;;42.87;18.10;;;-5.80;99.90;;;;;;5083661;28;20223;-59
2024/01/11 04:44:11;;;;;;;47.17;18.33;;;-5.80;99.90;;;;;;5082968;28;20183;-59
2024/01/11 04:46:40;;;;;;;41.77;18.47;;;-5.80;99.90;;;;;;5081804;28;20221;-61
2024/01/11 04:49:08;;;;;;;43.23;18.40;;;-5.80;99.90;;;;;;5082747;28;20353;-60
2024/01/11 04:51:36;;;;;;;45.20;18.30;;;-5.80;99.90;;;;;;5079315;28;20225;-60
2024/01/11 04:54:05;;;;;;;44.47;18.43;;;-5.80;99.90;;;;;;5081373;28;20230;-60
2024/01/11 04:56:33;;;;;;;40.83;17.93;;;-5.80;99.90;;;;;;5083952;28;20232;-60
2024/01/11 04:59:03;;;;;;;50.87;18.70;;;-5.80;99.90;;;;;;5080050;28;20278;-60
2024/01/11 05:01:31;;;;;;;42.13;18.97;;;-5.80;99.90;;;;;;5087512;28;20203;-60
2024/01/11 05:03:59;;;;;;;41.10;18.97;;;-5.80;99.90;;;;;;5084119;28;20223;-61
2024/01/11 05:06:28;;;;;;;46.40;18.97;;;-5.80;99.90;;;;;;5081153;28;20310;-60
2024/01/11 05:08:56;;;;;;;42.30;19.60;;;-5.80;99.90;;;;;;5085766;28;20219;-60
2024/01/11 05:11:26;;;;;;;42.50;18.13;;;-5.80;99.90;;;;;;5085280;28;20227;-61
2024/01/11 05:13:54;;;;;;;41.00;18.97;;;-5.80;99.90;;;;;;5086536;28;20199;-60
2024/01/11 05:16:25;;;;;;;43.70;18.63;;;-5.80;99.90;;;;;;5087824;28;20227;-59
2024/01/11 05:18:55;;;;;;;42.53;18.07;;;-5.80;99.90;;;;;;5085519;28;21798;-61
2024/01/11 05:21:25;;;;;;;41.47;18.00;;;-5.80;99.90;;;;;;5085795;28;20232;-60
2024/01/11 05:23:54;;;;;;;41.50;17.87;;;-5.80;99.90;;;;;;5083335;28;20230;-61
2024/01/11 05:26:22;;;;;;;47.30;18.40;;;-5.90;99.90;;;;;;5085815;28;20220;-60
2024/01/11 05:28:50;;;;;;;45.67;18.50;;;-5.80;99.90;;;;;;5085060;28;20280;-59
2024/01/11 05:31:19;;;;;;;42.03;18.77;;;-5.80;99.90;;;;;;5082601;28;20233;-60
2024/01/11 05:33:49;;;;;;;49.07;20.30;;;-5.80;99.90;;;;;;5098788;28;20219;-60
2024/01/11 05:36:18;;;;;;;45.03;18.17;;;-5.80;99.90;;;;;;5084565;28;20220;-60
2024/01/11 05:38:47;;;;;;;45.40;18.87;;;-5.80;99.90;;;;;;5085333;28;20219;-60
2024/01/11 05:41:15;;;;;;;41.83;19.13;;;-5.80;99.90;;;;;;5083558;28;20198;-59
2024/01/11 05:43:44;;;;;;;47.30;18.63;;;-5.80;99.90;;;;;;5085164;28;20669;-60
2024/01/11 05:46:12;;;;;;;56.70;19.97;;;-5.80;99.90;;;;;;5087715;28;20313;-60
2024/01/11 05:48:40;;;;;;;51.10;20.40;;;-5.80;99.90;;;;;;5087957;28;20642;-60
2024/01/11 05:51:11;;;;;;;50.80;21.63;;;-5.70;99.90;;;;;;5085096;28;20215;-60
2024/01/11 05:53:39;;;;;;;50.17;20.33;;;-5.70;99.90;;;;;;5079340;28;20273;-60
2024/01/11 05:56:11;;;;;;;51.97;21.57;;;-5.70;99.90;;;;;;5084394;27;20184;-59
2024/01/11 05:58:41;;;;;;;48.37;19.63;;;-5.70;99.90;;;;;;5087436;28;20199;-60
2024/01/11 06:01:09;;;;;;;50.63;20.07;;;-5.60;99.90;;;;;;5084592;28;20223;-60
2024/01/11 06:03:39;;;;;;;46.10;19.33;;;-5.60;99.90;;;;;;5087303;28;20207;-60
2024/01/11 06:06:08;;;;;;;45.47;20.03;;;-5.60;99.90;;;;;;5084258;28;20290;-60
2024/01/11 06:08:38;;;;;;;49.80;19.53;;;-5.60;99.90;;;;;;5081870;28;20250;-60
2024/01/11 06:11:07;;;;;;;45.70;18.83;;;-5.70;99.90;;;;;;5083779;28;20215;-59
2024/01/11 06:13:36;;;;;;;49.60;19.80;;;-5.70;99.90;;;;;;5085694;28;20302;-60
2024/01/11 06:16:05;;;;;;;47.73;20.40;;;-5.70;99.90;;;;;;5086386;27;20215;-59
2024/01/11 06:18:33;;;;;;;50.57;20.37;;;-5.70;99.90;;;;;;5085637;28;20223;-59
2024/01/11 06:21:01;;;;;;;48.87;20.27;;;-5.70;99.90;;;;;;5084043;28;20269;-59
2024/01/11 06:23:30;;;;;;;48.83;20.83;;;-5.70;99.90;;;;;;5085002;27;20600;-59
2024/01/11 06:25:59;;;;;;;46.20;19.17;;;-5.70;99.90;;;;;;5085792;28;20191;-59
2024/01/11 06:28:28;;;;;;;44.37;19.77;;;-5.70;99.90;;;;;;5083450;28;20220;-59
2024/01/11 06:30:56;;;;;;;48.67;19.10;;;-5.70;99.90;;;;;;5083991;28;20285;-59
2024/01/11 06:33:24;;;;;;;48.13;19.57;;;-5.70;99.90;;;;;;5080737;28;20227;-59
2024/01/11 06:35:52;;;;;;;43.27;18.97;;;-5.80;99.90;;;;;;5081584;28;21007;-59
2024/01/11 06:38:21;;;;;;;40.07;18.80;;;-5.80;99.90;;;;;;5082876;28;20296;-59
2024/01/11 06:40:49;;;;;;;48.83;19.40;;;-5.80;99.90;;;;;;5083680;28;20682;-59
2024/01/11 06:43:19;;;;;;;43.67;19.60;;;-5.80;99.90;;;;;;5079897;28;20227;-61
2024/01/11 06:45:47;;;;;;;48.80;19.50;;;-5.80;99.90;;;;;;5083309;28;20212;-59
2024/01/11 06:48:16;;;;;;;43.40;19.33;;;-5.80;99.90;;;;;;5082645;28;20748;-60
2024/01/11 06:50:44;;;;;;;49.77;20.07;;;-5.80;99.90;;;;;;5085377;28;20225;-60
2024/01/11 06:53:13;;;;;;;48.40;18.27;;;-5.80;99.90;;;;;;5088363;28;20194;-59
2024/01/11 06:55:42;;;;;;;43.17;19.60;;;-5.90;99.90;;;;;;5084996;28;20741;-60
2024/01/11 06:58:11;;;;;;;45.00;19.80;;;-5.90;99.90;;;;;;5085464;28;20306;-59
2024/01/11 07:00:42;;;;;;;48.27;20.43;;;-5.90;99.90;;;;;;5082017;28;20227;-60
2024/01/11 07:03:13;;;;;;;51.97;20.23;;;-5.90;99.90;;;;;;5085242;28;20227;-60
2024/01/11 07:05:41;;;;;;;49.67;20.80;;;-6.00;99.90;;;;;;5079821;28;20216;-60
2024/01/11 07:08:10;;;;;;;48.10;20.27;;;-6.00;99.90;;;;;;5082774;28;20228;-60
2024/01/11 07:10:38;;;;;;;46.20;21.07;;;-6.00;99.90;;;;;;5084105;28;20634;-60
2024/01/11 07:13:06;;;;;;;55.00;20.97;;;-6.00;99.90;;;;;;5085211;28;20588;-60
2024/01/11 07:15:35;;;;;;;43.67;19.57;;;-6.00;99.90;;;;;;5079552;28;20227;-60
2024/01/11 07:18:05;;;;;;;51.83;20.83;;;-6.00;99.90;;;;;;5081105;28;20266;-60
2024/01/11 07:20:34;;;;;;;48.00;20.77;;;-6.00;99.90;;;;;;5080967;28;20227;-60
2024/01/11 07:23:03;;;;;;;46.67;19.27;;;-6.00;99.90;;;;;;5099501;28;20529;-60
2024/01/11 07:25:32;;;;;;;45.77;19.33;;;-6.00;99.90;;;;;;5083416;28;20194;-59
2024/01/11 07:28:00;;;;;;;46.67;20.03;;;-6.00;99.90;;;;;;5083472;28;20683;-60
2024/01/11 07:30:28;;;;;;;45.80;20.93;;;-6.10;99.90;;;;;;5082502;28;20251;-60
2024/01/11 07:32:56;;;;;;;46.83;20.23;;;-6.10;99.90;;;;;;5084931;28;20638;-59
2024/01/11 07:35:26;;;;;;;50.37;21.77;;;-6.10;99.90;;;;;;5083114;28;20566;-61
2024/01/11 07:37:56;;;;;;;53.57;20.87;;;-6.10;99.90;;;;;;5086969;28;20203;-60
2024/01/11 07:40:24;;;;;;;56.93;21.50;;;-6.10;99.90;;;;;;5086508;28;20215;-59
2024/01/11 07:42:53;;;;;;;52.20;21.47;;;-6.10;99.90;;;;;;5081325;28;20230;-60
2024/01/11 07:45:21;;;;;;;49.97;20.23;;;-6.10;99.90;;;;;;5082696;28;20216;-59
2024/01/11 07:47:49;;;;;;;53.83;22.17;;;-6.10;99.90;;;;;;5081188;28;20246;-60
2024/01/11 07:50:18;;;;;;;55.50;20.73;;;-6.10;99.90;;;;;;5075345;28;20559;-60
2024/01/11 07:52:48;;;;;;;53.37;21.37;;;-6.10;99.90;;;;;;5083912;28;20194;-60
2024/01/11 07:55:17;;;;;;;54.87;21.43;;;-6.10;99.90;;;;;;5079720;28;20724;-59
2024/01/11 07:57:45;;;;;;;47.10;21.60;;;-6.10;99.90;;;;;;5083070;28;20581;-60
2024/01/11 08:00:14;;;;;;;56.10;22.47;;;-6.10;99.90;;;;;;5082412;27;20227;-60
2024/01/11 08:02:42;;;;;;;50.27;21.43;;;-6.10;99.90;;;;;;5085353;28;21168;-60
2024/01/11 08:05:11;;;;;;;51.77;21.80;;;-6.10;99.90;;;;;;5079203;28;20638;-59
2024/01/11 08:07:39;;;;;;;59.63;22.97;;;-6.10;99.90;;;;;;5083373;28;20226;-60
2024/01/11 08:10:10;;;;;;;55.27;22.17;;;-6.00;99.90;;;;;;5082484;28;20317;-60
2024/01/11 08:12:38;;;;;;;50.07;22.17;;;-6.00;99.90;;;;;;5081768;28;20223;-59
2024/01/11 08:15:08;;;;;;;51.70;21.33;;;-6.00;99.90;;;;;;5083316;27;20322;-60
2024/01/11 08:17:36;;;;;;;57.07;22.43;;;-6.00;99.90;;;;;;5083664;28;20219;-60
2024/01/11 08:20:08;;;;;;;50.20;22.63;;;-6.00;99.90;;;;;;5078223;28;20208;-60
2024/01/11 08:22:37;;;;;;;54.33;23.70;;;-6.00;99.90;;;;;;5082718;28;20219;-59
2024/01/11 08:25:06;;;;;;;53.50;22.80;;;-5.90;99.90;;;;;;5083183;28;20246;-60
2024/01/11 08:27:36;;;;;;;49.40;22.07;;;-5.90;99.90;;;;;;5083454;28;20313;-60
2024/01/11 08:30:06;;;;;;;56.37;22.80;;;-5.90;99.90;;;;;;5082610;28;20218;-59
2024/01/11 08:32:38;;;;;;;62.23;24.33;;;-5.90;99.90;;;;;;5077504;28;20228;-59
2024/01/11 08:35:09;;;;;;;50.37;22.10;;;-5.90;99.90;;;;;;5087920;28;20561;-60
2024/01/11 08:37:39;;;;;;;65.27;23.93;;;-5.80;99.90;;;;;;5087430;28;20214;-59
2024/01/11 08:40:09;;;;;;;58.70;23.90;;;-5.80;99.90;;;;;;5091245;28;20254;-59
2024/01/11 08:42:41;;;;;;;66.70;26.10;;;-5.70;99.90;;;;;;5088125;28;20228;-59
2024/01/11 08:45:10;;;;;;;65.50;26.07;;;-5.60;99.90;;;;;;5088700;28;20218;-59
2024/01/11 08:47:40;;;;;;;60.80;24.50;;;-5.50;99.90;;;;;;5086954;28;20227;-59
2024/01/11 08:50:11;;;;;;;61.57;25.30;;;-5.50;99.90;;;;;;5089071;28;20183;-59
2024/01/11 08:52:39;;;;;;;60.53;24.67;;;-5.40;99.90;;;;;;5089574;28;20187;-59
2024/01/11 08:55:08;;;;;;;58.97;23.90;;;-5.30;99.90;;;;;;5082361;28;20219;-59
2024/01/11 08:57:39;;;;;;;61.07;25.17;;;-5.30;99.90;;;;;;5090098;28;20215;-59
2024/01/11 09:00:08;;;;;;;54.83;23.37;;;-5.20;99.90;;;;;;5088220;28;20963;-60
2024/01/11 09:02:36;;;;;;;56.70;24.13;;;-5.10;99.90;;;;;;5089363;27;20741;-60
2024/01/11 09:05:07;;;;;;;63.77;25.17;;;-5.10;99.90;;;;;;5092055;28;20244;-60
2024/01/11 09:07:37;;;;;;;53.50;23.63;;;-5.00;99.90;;;;;;5085833;28;20254;-59
2024/01/11 09:10:08;;;;;;;52.40;23.23;;;-4.90;99.90;;;;;;5083642;28;20226;-60
2024/01/11 09:12:36;;;;;;;60.33;24.50;;;-4.80;99.90;;;;;;5087457;28;20219;-60
2024/01/11 09:15:07;;;;;;;60.07;24.87;;;-4.70;99.90;;;;;;5089004;28;20246;-59
2024/01/11 09:17:36;;;;;;;62.23;24.20;;;-4.60;99.90;;;;;;5088388;28;20234;-60
2024/01/11 09:20:05;;;;;;;55.07;24.17;;;-4.50;99.90;;;;;;5088350;28;20191;-59
2024/01/11 09:22:33;;;;;;;59.50;25.57;;;-4.40;99.90;;;;;;5092198;28;20199;-59
2024/01/11 09:25:02;;;;;;;74.03;28.93;;;-4.20;99.90;;;;;;5090407;28;20211;-60
2024/01/11 09:27:30;;;;;;;70.10;27.97;;;-4.10;99.90;;;;;;5086776;28;20251;-60
2024/01/11 09:29:58;;;;;;;77.10;28.47;;;-3.90;99.90;;;;;;5090831;28;20219;-60
2024/01/11 09:32:28;;;;;;;63.40;27.77;;;-3.80;99.90;;;;;;5088031;27;20219;-60
2024/01/11 09:34:56;;;;;;;59.27;25.30;;;-3.60;99.90;;;;;;5089403;28;20223;-60
2024/01/11 09:37:25;;;;;;;56.47;24.40;;;-3.40;99.90;;;;;;5088147;28;20230;-60
2024/01/11 09:39:53;;;;;;;56.70;24.47;;;-3.30;99.90;;;;;;5087630;28;20224;-59
2024/01/11 09:42:21;;;;;;;56.43;23.83;;;-3.10;99.90;;;;;;5088714;28;20219;-60
2024/01/11 09:44:50;;;;;;;54.97;23.97;;;-2.90;99.90;;;;;;5085798;28;20269;-60
2024/01/11 09:47:19;;;;;;;48.63;22.57;;;-2.70;99.90;;;;;;5080870;28;20635;-59
2024/01/11 09:49:50;;;;;;;53.90;23.10;;;-2.40;99.90;;;;;;5083409;28;20192;-60
2024/01/11 09:52:21;;;;;;;53.93;22.53;;;-2.20;99.90;;;;;;5085812;28;20219;-60
2024/01/11 09:54:50;;;;;;;50.23;22.13;;;-2.00;99.90;;;;;;5085923;28;20298;-60
2024/01/11 09:57:24;;;;;;;57.87;23.57;;;-1.80;99.90;;;;;;5078985;28;20220;-60
2024/01/11 09:59:56;;;;;;;51.43;23.03;;;-1.50;99.90;;;;;;5081087;28;20222;-60
2024/01/11 10:02:26;;;;;;;50.87;22.17;;;-1.20;99.90;;;;;;5084015;28;20231;-60
2024/01/11 10:04:56;;;;;;;44.60;21.10;;;-0.90;99.90;;;;;;5084117;28;20283;-60
2024/01/11 10:07:25;;;;;;;51.33;22.13;;;-0.50;99.90;;;;;;5085571;28;20286;-60
2024/01/11 10:09:54;;;;;;;48.60;21.20;;;-0.30;99.90;;;;;;5078830;28;20549;-60
2024/01/11 10:12:24;;;;;;;53.30;22.90;;;-0.20;99.90;;;;;;5084386;28;20215;-60
2024/01/11 10:14:53;;;;;;;54.27;22.43;;;-0.10;99.90;;;;;;5084385;28;20314;-60
2024/01/11 10:17:22;;;;;;;42.27;21.73;;;-0.30;99.90;;;;;;5086795;28;20215;-60
2024/01/11 10:19:56;;;;;;;45.80;21.23;;;0.00;99.90;;;;;;5082027;28;20248;-60
2024/01/11 10:22:24;;;;;;;47.93;21.63;;;-0.10;99.90;;;;;;5083977;28;20249;-60
2024/01/11 10:25:10;;;;;;;45.47;21.77;;;-0.10;99.90;;;;;;5084105;28;20315;-60
2024/01/11 10:27:42;;;;;;;49.70;21.93;;;0.00;99.90;;;;;;5083409;28;20302;-60
2024/01/11 10:30:12;;;;;;;48.80;21.90;;;0.20;99.90;;;;;;5083121;28;20705;-60
2024/01/11 10:32:41;;;;;;;46.90;22.03;;;0.10;99.90;;;;;;5085680;28;20618;-59
2024/01/11 10:35:11;;;;;;;48.90;22.53;;;0.20;99.90;;;;;;5084186;28;20196;-60
2024/01/11 10:37:40;;;;;;;43.17;21.07;;;0.40;99.90;;;;;;5085813;28;20207;-60
2024/01/11 10:40:10;;;;;;;43.30;21.73;;;0.60;99.90;;;;;;5084815;28;20218;-60
2024/01/11 10:42:43;;;;;;;44.13;21.33;;;0.70;99.90;;;;;;5083638;28;20227;-60
2024/01/11 10:45:16;;;;;;;43.83;21.60;;;0.90;99.90;;;;;;5086710;28;20597;-60
2024/01/11 10:47:51;;;;;;;46.73;21.67;;;1.00;99.90;;;;;;5084377;28;20280;-60
2024/01/11 10:50:23;;;;;;;44.37;22.43;;;1.00;99.90;;;;;;5086080;28;20662;-61
2024/01/11 10:53:03;;;;;;;45.70;21.63;;;1.10;99.90;;;;;;5083479;28;20192;-60
2024/01/11 10:55:34;;;;;;;52.87;22.23;;;1.10;99.90;;;;;;5084330;28;20242;-60
2024/01/11 10:58:03;;;;;;;50.53;22.73;;;0.90;99.90;;;;;;5083107;27;20231;-60
2024/01/11 11:00:32;;;;;;;47.87;21.97;;;1.10;99.90;;;;;;5082254;28;20224;-60
2024/01/11 11:03:01;;;;;;;45.23;22.80;;;1.20;99.90;;;;;;5083854;28;20219;-60
2024/01/11 11:05:35;;;;;;;48.00;21.83;;;1.20;99.90;;;;;;5081082;28;20231;-60
2024/01/11 11:08:06;;;;;;;46.80;23.40;;;1.40;99.90;;;;;;5084517;28;20290;-60
2024/01/11 11:10:35;;;;;;;45.00;22.47;;;1.40;99.90;;;;;;5081948;28;20208;-60
2024/01/11 11:13:06;;;;;;;47.97;22.37;;;1.50;99.90;;;;;;5085086;28;20254;-60
2024/01/11 11:15:36;;;;;;;50.00;23.03;;;1.50;99.90;;;;;;5082240;28;20244;-61
2024/01/11 11:18:06;;;;;;;48.27;23.30;;;1.40;99.90;;;;;;5083739;28;20314;-60
2024/01/11 11:20:37;;;;;;;50.60;23.27;;;1.40;99.90;;;;;;5085342;28;20228;-60
2024/01/11 11:23:06;;;;;;;49.00;22.83;;;1.10;99.90;;;;;;5083177;28;20199;-60
2024/01/11 11:25:35;;;;;;;48.30;22.57;;;1.20;99.90;;;;;;5081749;28;20203;-60
2024/01/11 11:28:04;;;;;;;40.90;21.13;;;1.40;99.90;;;;;;5087048;27;20214;-60
2024/01/11 11:30:33;;;;;;;44.30;22.37;;;1.50;99.90;;;;;;5083174;28;20215;-60
2024/01/11 11:33:09;;;;;;;43.27;21.33;;;1.70;99.90;;;;;;5087692;28;20219;-60
2024/01/11 11:35:39;;;;;;;42.57;20.80;;;2.00;99.90;;;;;;5082734;28;20223;-60
2024/01/11 11:38:08;;;;;;;41.53;20.27;;;2.10;99.90;;;;;;5083748;28;20203;-60
2024/01/11 11:40:39;;;;;;;43.07;21.03;;;2.00;99.90;;;;;;5084711;28;20191;-60
2024/01/11 11:43:08;;;;;;;46.17;21.17;;;2.10;99.90;;;;;;5080032;28;20302;-60
2024/01/11 11:45:38;;;;;;;43.43;21.50;;;2.10;99.90;;;;;;5084229;28;20276;-60
2024/01/11 11:48:39;;;;;;;45.40;20.93;;;2.10;99.90;;;;;;5083596;28;20235;-60
2024/01/11 11:51:11;;;;;;;42.87;20.33;;;2.20;99.90;;;;;;5085021;28;20231;-60
2024/01/11 11:53:41;;;;;;;43.70;19.77;;;2.30;99.90;;;;;;5084910;28;20692;-60
2024/01/11 11:56:11;;;;;;;37.60;19.90;;;2.40;99.90;;;;;;5083808;28;20187;-59
2024/01/11 11:58:41;;;;;;;37.87;19.03;;;2.30;99.90;;;;;;5086698;28;20284;-60
2024/01/11 12:01:09;;;;;;;40.87;20.87;;;2.40;99.90;;;;;;5085662;28;20242;-60
2024/01/11 12:03:39;;;;;;;40.80;19.97;;;2.40;99.90;;;;;;5083161;28;20273;-59
2024/01/11 12:06:11;;;;;;;41.47;21.50;;;2.40;99.90;;;;;;5084667;28;20302;-60
2024/01/11 12:08:43;;;;;;;41.40;20.37;;;2.30;99.90;;;;;;5079094;28;20985;-60
2024/01/11 12:11:14;;;;;;;43.17;21.23;;;2.30;99.90;;;;;;5082727;28;20201;-60
2024/01/11 12:13:44;;;;;;;43.27;21.03;;;2.30;99.90;;;;;;5084420;28;20198;-60
2024/01/11 12:16:12;;;;;;;40.17;20.03;;;2.20;99.90;;;;;;5086078;28;20311;-60
2024/01/11 12:18:41;;;;;;;38.67;20.03;;;2.30;99.90;;;;;;5082791;28;20234;-60
2024/01/11 12:21:11;;;;;;;36.57;19.30;;;2.30;99.90;;;;;;5081246;28;20302;-60
2024/01/11 12:23:41;;;;;;;45.80;21.47;;;2.40;99.90;;;;;;5084570;28;20258;-60
2024/01/11 12:26:12;;;;;;;42.40;20.70;;;2.40;99.90;;;;;;5087752;28;20191;-60
2024/01/11 12:28:43;;;;;;;39.73;18.87;;;2.50;99.90;;;;;;5084626;28;20236;-60
2024/01/11 12:31:14;;;;;;;35.27;18.97;;;2.30;99.90;;;;;;5083438;28;20322;-60
2024/01/11 12:33:43;;;;;;;37.73;18.63;;;2.40;99.90;;;;;;5084201;27;20220;-60
2024/01/11 12:36:13;;;;;;;37.07;19.67;;;2.40;99.90;;;;;;5081499;28;20233;-59
2024/01/11 12:38:48;;;;;;;37.67;19.13;;;2.30;99.90;;;;;;5084743;28;20720;-59